sensor_id;sensor_type;location;lat;lon;timestamp;P1;durP1;ratioP1;P2;durP2;ratioP2
72924;SDS011;61070;50.794;7.054;2023-03-26T00:01:02;25.17;;;4.45;;
72924;SDS011;61070;50.794;7.054;2023-03-26T00:03:30;21.13;;;3.70;;
72924;SDS011;61070;50.794;7.054;2023-03-26T00:06:07;35.10;;;4.93;;
72924;SDS011;61070;50.794;7.054;2023-03-26T00:08:35;19.67;;;3.63;;
72924;SDS011;61070;50.794;7.054;2023-03-26T00:11:02;20.83;;;3.28;;
72924;SDS011;61070;50.794;7.054;2023-03-26T00:13:29;28.10;;;4.05;;
72924;SDS011;61070;50.794;7.054;2023-03-26T00:15:54;26.98;;;3.85;;
72924;SDS011;61070;50.794;7.054;2023-03-26T00:18:20;20.58;;;3.45;;
72924;SDS011;61070;50.794;7.054;2023-03-26T00:20:48;20.98;;;3.60;;
72924;SDS011;61070;50.794;7.054;2023-03-26T00:23:14;17.63;;;2.53;;
72924;SDS011;61070;50.794;7.054;2023-03-26T00:25:39;19.13;;;3.40;;
72924;SDS011;61070;50.794;7.054;2023-03-26T00:28:06;19.65;;;3.35;;
72924;SDS011;61070;50.794;7.054;2023-03-26T00:30:32;17.15;;;2.50;;
72924;SDS011;61070;50.794;7.054;2023-03-26T00:32:59;21.48;;;3.70;;
72924;SDS011;61070;50.794;7.054;2023-03-26T00:35:25;13.93;;;3.10;;
72924;SDS011;61070;50.794;7.054;2023-03-26T00:37:50;18.23;;;3.72;;
72924;SDS011;61070;50.794;7.054;2023-03-26T00:40:17;23.10;;;3.65;;
72924;SDS011;61070;50.794;7.054;2023-03-26T00:42:43;17.80;;;3.58;;
72924;SDS011;61070;50.794;7.054;2023-03-26T00:45:08;22.42;;;3.28;;
72924;SDS011;61070;50.794;7.054;2023-03-26T00:47:34;17.67;;;2.95;;
72924;SDS011;61070;50.794;7.054;2023-03-26T00:50:00;16.65;;;2.85;;
72924;SDS011;61070;50.794;7.054;2023-03-26T00:52:25;15.27;;;3.30;;
72924;SDS011;61070;50.794;7.054;2023-03-26T00:54:52;18.95;;;4.15;;
72924;SDS011;61070;50.794;7.054;2023-03-26T00:57:18;22.08;;;3.03;;
72924;SDS011;61070;50.794;7.054;2023-03-26T00:59:49;19.10;;;2.65;;
72924;SDS011;61070;50.794;7.054;2023-03-26T01:02:15;28.27;;;4.78;;
72924;SDS011;61070;50.794;7.054;2023-03-26T01:04:56;22.90;;;3.60;;
72924;SDS011;61070;50.794;7.054;2023-03-26T01:07:26;13.90;;;2.92;;
72924;SDS011;61070;50.794;7.054;2023-03-26T01:09:53;25.33;;;3.40;;
72924;SDS011;61070;50.794;7.054;2023-03-26T01:12:25;25.95;;;3.60;;
72924;SDS011;61070;50.794;7.054;2023-03-26T01:14:53;19.52;;;3.10;;
72924;SDS011;61070;50.794;7.054;2023-03-26T01:17:20;15.07;;;3.42;;
72924;SDS011;61070;50.794;7.054;2023-03-26T01:19:53;14.23;;;2.85;;
72924;SDS011;61070;50.794;7.054;2023-03-26T01:22:40;24.42;;;3.58;;
72924;SDS011;61070;50.794;7.054;2023-03-26T01:25:08;17.65;;;3.67;;
72924;SDS011;61070;50.794;7.054;2023-03-26T01:27:46;17.42;;;3.28;;
72924;SDS011;61070;50.794;7.054;2023-03-26T01:30:24;20.30;;;3.15;;
72924;SDS011;61070;50.794;7.054;2023-03-26T01:33:02;19.77;;;3.05;;
72924;SDS011;61070;50.794;7.054;2023-03-26T01:36:07;18.20;;;3.30;;
72924;SDS011;61070;50.794;7.054;2023-03-26T01:44:09;23.48;;;3.55;;
72924;SDS011;61070;50.794;7.054;2023-03-26T01:46:44;18.52;;;4.65;;
72924;SDS011;61070;50.794;7.054;2023-03-26T01:49:10;18.65;;;3.50;;
72924;SDS011;61070;50.794;7.054;2023-03-26T01:51:37;21.75;;;3.25;;
72924;SDS011;61070;50.794;7.054;2023-03-26T01:54:05;23.70;;;3.00;;
72924;SDS011;61070;50.794;7.054;2023-03-26T02:01:51;20.67;;;3.58;;
72924;SDS011;61070;50.794;7.054;2023-03-26T02:04:26;16.92;;;2.90;;
72924;SDS011;61070;50.794;7.054;2023-03-26T02:07:02;14.23;;;3.60;;
72924;SDS011;61070;50.794;7.054;2023-03-26T02:09:46;18.08;;;3.05;;
72924;SDS011;61070;50.794;7.054;2023-03-26T02:14:43;16.38;;;3.63;;
72924;SDS011;61070;50.794;7.054;2023-03-26T02:17:09;19.65;;;3.60;;
72924;SDS011;61070;50.794;7.054;2023-03-26T02:19:36;12.27;;;2.88;;
72924;SDS011;61070;50.794;7.054;2023-03-26T02:22:06;21.80;;;3.33;;
72924;SDS011;61070;50.794;7.054;2023-03-26T02:24:34;22.27;;;4.55;;
72924;SDS011;61070;50.794;7.054;2023-03-26T02:27:00;16.17;;;3.38;;
72924;SDS011;61070;50.794;7.054;2023-03-26T02:29:26;20.60;;;4.15;;
72924;SDS011;61070;50.794;7.054;2023-03-26T02:31:51;19.80;;;3.72;;
72924;SDS011;61070;50.794;7.054;2023-03-26T02:34:17;26.25;;;4.18;;
72924;SDS011;61070;50.794;7.054;2023-03-26T02:36:42;21.50;;;3.22;;
72924;SDS011;61070;50.794;7.054;2023-03-26T02:39:08;18.88;;;3.47;;
72924;SDS011;61070;50.794;7.054;2023-03-26T02:41:35;15.73;;;3.30;;
72924;SDS011;61070;50.794;7.054;2023-03-26T02:44:01;25.27;;;3.72;;
72924;SDS011;61070;50.794;7.054;2023-03-26T02:46:26;17.88;;;3.28;;
72924;SDS011;61070;50.794;7.054;2023-03-26T02:48:51;24.05;;;4.40;;
72924;SDS011;61070;50.794;7.054;2023-03-26T02:51:17;16.98;;;2.95;;
72924;SDS011;61070;50.794;7.054;2023-03-26T02:53:43;19.85;;;3.78;;
72924;SDS011;61070;50.794;7.054;2023-03-26T02:56:08;23.05;;;3.75;;
72924;SDS011;61070;50.794;7.054;2023-03-26T02:58:34;22.95;;;3.92;;
72924;SDS011;61070;50.794;7.054;2023-03-26T03:01:00;25.35;;;3.78;;
72924;SDS011;61070;50.794;7.054;2023-03-26T03:03:27;22.75;;;3.42;;
72924;SDS011;61070;50.794;7.054;2023-03-26T03:05:54;16.90;;;3.00;;
72924;SDS011;61070;50.794;7.054;2023-03-26T03:08:21;24.13;;;3.60;;
72924;SDS011;61070;50.794;7.054;2023-03-26T03:10:54;24.50;;;3.08;;
72924;SDS011;61070;50.794;7.054;2023-03-26T03:13:21;22.60;;;3.20;;
72924;SDS011;61070;50.794;7.054;2023-03-26T03:15:46;21.70;;;4.38;;
72924;SDS011;61070;50.794;7.054;2023-03-26T03:18:12;20.63;;;3.00;;
72924;SDS011;61070;50.794;7.054;2023-03-26T03:20:37;18.92;;;3.25;;
72924;SDS011;61070;50.794;7.054;2023-03-26T03:23:02;20.48;;;3.53;;
72924;SDS011;61070;50.794;7.054;2023-03-26T03:25:27;15.55;;;3.00;;
72924;SDS011;61070;50.794;7.054;2023-03-26T03:27:53;17.35;;;3.45;;
72924;SDS011;61070;50.794;7.054;2023-03-26T03:30:18;21.48;;;3.30;;
72924;SDS011;61070;50.794;7.054;2023-03-26T03:32:44;25.23;;;3.92;;
72924;SDS011;61070;50.794;7.054;2023-03-26T03:35:09;16.73;;;2.85;;
72924;SDS011;61070;50.794;7.054;2023-03-26T03:37:34;17.80;;;3.20;;
72924;SDS011;61070;50.794;7.054;2023-03-26T03:40:00;15.73;;;2.45;;
72924;SDS011;61070;50.794;7.054;2023-03-26T03:42:25;16.70;;;2.67;;
72924;SDS011;61070;50.794;7.054;2023-03-26T03:44:51;24.05;;;4.35;;
72924;SDS011;61070;50.794;7.054;2023-03-26T03:47:16;17.55;;;2.78;;
72924;SDS011;61070;50.794;7.054;2023-03-26T03:49:42;21.45;;;3.38;;
72924;SDS011;61070;50.794;7.054;2023-03-26T03:52:07;10.77;;;2.90;;
72924;SDS011;61070;50.794;7.054;2023-03-26T03:54:32;23.02;;;4.07;;
72924;SDS011;61070;50.794;7.054;2023-03-26T03:56:58;13.85;;;2.95;;
72924;SDS011;61070;50.794;7.054;2023-03-26T03:59:23;15.05;;;3.10;;
72924;SDS011;61070;50.794;7.054;2023-03-26T04:01:49;17.65;;;3.70;;
72924;SDS011;61070;50.794;7.054;2023-03-26T04:04:15;23.45;;;3.25;;
72924;SDS011;61070;50.794;7.054;2023-03-26T04:06:40;18.00;;;3.53;;
72924;SDS011;61070;50.794;7.054;2023-03-26T04:09:06;16.50;;;2.72;;
72924;SDS011;61070;50.794;7.054;2023-03-26T04:11:31;15.50;;;2.67;;
72924;SDS011;61070;50.794;7.054;2023-03-26T04:13:56;13.23;;;3.13;;
72924;SDS011;61070;50.794;7.054;2023-03-26T04:16:23;13.48;;;2.60;;
72924;SDS011;61070;50.794;7.054;2023-03-26T04:18:48;15.43;;;3.28;;
72924;SDS011;61070;50.794;7.054;2023-03-26T04:21:13;20.63;;;3.13;;
72924;SDS011;61070;50.794;7.054;2023-03-26T04:23:40;34.95;;;4.07;;
72924;SDS011;61070;50.794;7.054;2023-03-26T04:26:06;12.70;;;2.92;;
72924;SDS011;61070;50.794;7.054;2023-03-26T04:28:53;16.98;;;3.83;;
72924;SDS011;61070;50.794;7.054;2023-03-26T04:31:23;17.25;;;3.00;;
72924;SDS011;61070;50.794;7.054;2023-03-26T04:33:53;16.23;;;3.35;;
72924;SDS011;61070;50.794;7.054;2023-03-26T04:36:26;17.30;;;3.30;;
72924;SDS011;61070;50.794;7.054;2023-03-26T04:38:53;19.95;;;4.00;;
72924;SDS011;61070;50.794;7.054;2023-03-26T04:41:19;17.60;;;2.85;;
72924;SDS011;61070;50.794;7.054;2023-03-26T04:43:46;21.55;;;3.17;;
72924;SDS011;61070;50.794;7.054;2023-03-26T04:46:17;17.70;;;3.90;;
72924;SDS011;61070;50.794;7.054;2023-03-26T04:48:45;21.27;;;3.45;;
72924;SDS011;61070;50.794;7.054;2023-03-26T04:51:14;18.10;;;4.13;;
72924;SDS011;61070;50.794;7.054;2023-03-26T04:53:44;11.88;;;2.63;;
72924;SDS011;61070;50.794;7.054;2023-03-26T04:56:26;14.57;;;3.42;;
72924;SDS011;61070;50.794;7.054;2023-03-26T04:58:59;16.13;;;2.55;;
72924;SDS011;61070;50.794;7.054;2023-03-26T05:01:25;16.80;;;2.67;;
72924;SDS011;61070;50.794;7.054;2023-03-26T05:03:52;18.75;;;2.95;;
72924;SDS011;61070;50.794;7.054;2023-03-26T05:06:18;15.30;;;2.95;;
72924;SDS011;61070;50.794;7.054;2023-03-26T05:08:44;14.48;;;3.30;;
72924;SDS011;61070;50.794;7.054;2023-03-26T05:11:11;14.35;;;3.35;;
72924;SDS011;61070;50.794;7.054;2023-03-26T05:13:36;11.40;;;2.78;;
72924;SDS011;61070;50.794;7.054;2023-03-26T05:16:02;12.70;;;2.55;;
72924;SDS011;61070;50.794;7.054;2023-03-26T05:18:27;17.55;;;2.95;;
72924;SDS011;61070;50.794;7.054;2023-03-26T05:20:53;15.38;;;3.40;;
72924;SDS011;61070;50.794;7.054;2023-03-26T05:23:19;14.77;;;3.33;;
72924;SDS011;61070;50.794;7.054;2023-03-26T05:25:45;12.00;;;2.78;;
72924;SDS011;61070;50.794;7.054;2023-03-26T05:28:11;13.90;;;2.75;;
72924;SDS011;61070;50.794;7.054;2023-03-26T05:30:36;21.60;;;3.60;;
72924;SDS011;61070;50.794;7.054;2023-03-26T05:33:01;15.18;;;3.10;;
72924;SDS011;61070;50.794;7.054;2023-03-26T05:35:28;20.15;;;3.50;;
72924;SDS011;61070;50.794;7.054;2023-03-26T05:37:53;20.33;;;4.03;;
72924;SDS011;61070;50.794;7.054;2023-03-26T05:40:19;14.10;;;3.50;;
72924;SDS011;61070;50.794;7.054;2023-03-26T05:42:45;14.13;;;4.60;;
72924;SDS011;61070;50.794;7.054;2023-03-26T05:45:12;14.48;;;3.45;;
72924;SDS011;61070;50.794;7.054;2023-03-26T05:47:38;14.90;;;3.35;;
72924;SDS011;61070;50.794;7.054;2023-03-26T05:50:04;20.05;;;3.50;;
72924;SDS011;61070;50.794;7.054;2023-03-26T05:52:31;25.35;;;3.63;;
72924;SDS011;61070;50.794;7.054;2023-03-26T05:54:57;17.02;;;3.00;;
72924;SDS011;61070;50.794;7.054;2023-03-26T05:57:22;24.15;;;3.70;;
72924;SDS011;61070;50.794;7.054;2023-03-26T05:59:48;15.27;;;3.35;;
72924;SDS011;61070;50.794;7.054;2023-03-26T06:02:14;18.30;;;3.92;;
72924;SDS011;61070;50.794;7.054;2023-03-26T06:04:39;17.05;;;3.13;;
72924;SDS011;61070;50.794;7.054;2023-03-26T06:07:06;22.65;;;3.38;;
72924;SDS011;61070;50.794;7.054;2023-03-26T06:09:35;13.27;;;3.08;;
72924;SDS011;61070;50.794;7.054;2023-03-26T06:12:02;11.57;;;2.65;;
72924;SDS011;61070;50.794;7.054;2023-03-26T06:14:28;18.35;;;3.17;;
72924;SDS011;61070;50.794;7.054;2023-03-26T06:16:54;12.52;;;3.15;;
72924;SDS011;61070;50.794;7.054;2023-03-26T06:19:19;18.67;;;3.33;;
72924;SDS011;61070;50.794;7.054;2023-03-26T06:21:44;20.20;;;3.25;;
72924;SDS011;61070;50.794;7.054;2023-03-26T06:24:10;18.05;;;4.22;;
72924;SDS011;61070;50.794;7.054;2023-03-26T06:26:35;10.82;;;2.53;;
72924;SDS011;61070;50.794;7.054;2023-03-26T06:29:00;21.08;;;3.58;;
72924;SDS011;61070;50.794;7.054;2023-03-26T06:31:26;14.57;;;2.90;;
72924;SDS011;61070;50.794;7.054;2023-03-26T06:33:51;18.55;;;3.13;;
72924;SDS011;61070;50.794;7.054;2023-03-26T06:36:17;13.55;;;2.60;;
72924;SDS011;61070;50.794;7.054;2023-03-26T06:38:42;19.90;;;4.28;;
72924;SDS011;61070;50.794;7.054;2023-03-26T06:41:07;21.75;;;3.97;;
72924;SDS011;61070;50.794;7.054;2023-03-26T06:43:33;15.00;;;2.90;;
72924;SDS011;61070;50.794;7.054;2023-03-26T06:45:59;14.80;;;3.25;;
72924;SDS011;61070;50.794;7.054;2023-03-26T06:48:25;27.42;;;3.40;;
72924;SDS011;61070;50.794;7.054;2023-03-26T06:50:51;19.20;;;4.45;;
72924;SDS011;61070;50.794;7.054;2023-03-26T06:53:16;14.52;;;2.80;;
72924;SDS011;61070;50.794;7.054;2023-03-26T06:55:41;18.23;;;3.72;;
72924;SDS011;61070;50.794;7.054;2023-03-26T06:58:09;20.25;;;3.63;;
72924;SDS011;61070;50.794;7.054;2023-03-26T07:00:36;19.38;;;5.07;;
72924;SDS011;61070;50.794;7.054;2023-03-26T07:03:02;16.90;;;3.75;;
72924;SDS011;61070;50.794;7.054;2023-03-26T07:05:28;14.13;;;3.92;;
72924;SDS011;61070;50.794;7.054;2023-03-26T07:07:53;14.75;;;2.80;;
72924;SDS011;61070;50.794;7.054;2023-03-26T07:10:18;23.88;;;3.85;;
72924;SDS011;61070;50.794;7.054;2023-03-26T07:12:44;19.67;;;3.55;;
72924;SDS011;61070;50.794;7.054;2023-03-26T07:15:10;8.95;;;2.88;;
72924;SDS011;61070;50.794;7.054;2023-03-26T07:17:35;19.10;;;3.95;;
72924;SDS011;61070;50.794;7.054;2023-03-26T07:20:01;16.70;;;3.47;;
72924;SDS011;61070;50.794;7.054;2023-03-26T07:22:27;13.48;;;3.35;;
72924;SDS011;61070;50.794;7.054;2023-03-26T07:24:53;21.45;;;3.53;;
72924;SDS011;61070;50.794;7.054;2023-03-26T07:29:51;13.55;;;3.33;;
72924;SDS011;61070;50.794;7.054;2023-03-26T07:37:49;11.02;;;3.53;;
72924;SDS011;61070;50.794;7.054;2023-03-26T07:45:32;14.52;;;3.03;;
72924;SDS011;61070;50.794;7.054;2023-03-26T07:48:02;13.85;;;3.00;;
72924;SDS011;61070;50.794;7.054;2023-03-26T07:50:28;19.10;;;3.55;;
72924;SDS011;61070;50.794;7.054;2023-03-26T07:52:54;14.35;;;3.47;;
72924;SDS011;61070;50.794;7.054;2023-03-26T07:55:19;11.38;;;3.60;;
72924;SDS011;61070;50.794;7.054;2023-03-26T08:00:29;14.25;;;3.67;;
72924;SDS011;61070;50.794;7.054;2023-03-26T08:03:04;14.95;;;3.55;;
72924;SDS011;61070;50.794;7.054;2023-03-26T08:05:49;21.55;;;3.75;;
72924;SDS011;61070;50.794;7.054;2023-03-26T08:11:21;15.95;;;3.25;;
72924;SDS011;61070;50.794;7.054;2023-03-26T08:13:59;16.17;;;2.72;;
72924;SDS011;61070;50.794;7.054;2023-03-26T08:16:36;20.63;;;4.68;;
72924;SDS011;61070;50.794;7.054;2023-03-26T08:22:14;15.55;;;3.30;;
72924;SDS011;61070;50.794;7.054;2023-03-26T08:24:58;11.40;;;3.00;;
72924;SDS011;61070;50.794;7.054;2023-03-26T08:30:13;18.83;;;3.88;;
72924;SDS011;61070;50.794;7.054;2023-03-26T08:32:44;17.60;;;3.13;;
72924;SDS011;61070;50.794;7.054;2023-03-26T08:35:16;11.70;;;3.08;;
72924;SDS011;61070;50.794;7.054;2023-03-26T08:37:42;18.15;;;2.63;;
72924;SDS011;61070;50.794;7.054;2023-03-26T08:40:09;20.00;;;3.28;;
72924;SDS011;61070;50.794;7.054;2023-03-26T08:42:56;14.38;;;3.60;;
72924;SDS011;61070;50.794;7.054;2023-03-26T08:49:02;11.48;;;2.90;;
72924;SDS011;61070;50.794;7.054;2023-03-26T08:54:52;23.38;;;3.20;;
72924;SDS011;61070;50.794;7.054;2023-03-26T09:05:31;11.88;;;2.67;;
72924;SDS011;61070;50.794;7.054;2023-03-26T09:47:45;8.30;;;1.58;;
72924;SDS011;61070;50.794;7.054;2023-03-26T10:01:46;7.07;;;1.58;;
72924;SDS011;61070;50.794;7.054;2023-03-26T10:12:50;4.95;;;1.67;;
72924;SDS011;61070;50.794;7.054;2023-03-26T10:21:03;11.75;;;2.88;;
72924;SDS011;61070;50.794;7.054;2023-03-26T10:23:38;9.38;;;2.15;;
72924;SDS011;61070;50.794;7.054;2023-03-26T10:28:56;5.53;;;1.73;;
72924;SDS011;61070;50.794;7.054;2023-03-26T10:48:27;4.43;;;1.33;;
72924;SDS011;61070;50.794;7.054;2023-03-26T10:51:10;4.22;;;1.23;;
72924;SDS011;61070;50.794;7.054;2023-03-26T10:53:47;3.22;;;0.95;;
72924;SDS011;61070;50.794;7.054;2023-03-26T10:56:25;3.75;;;1.27;;
72924;SDS011;61070;50.794;7.054;2023-03-26T10:58:56;7.65;;;1.30;;
72924;SDS011;61070;50.794;7.054;2023-03-26T11:01:33;5.38;;;1.38;;
72924;SDS011;61070;50.794;7.054;2023-03-26T11:04:22;6.15;;;1.88;;
72924;SDS011;61070;50.794;7.054;2023-03-26T11:10:09;5.63;;;1.13;;
72924;SDS011;61070;50.794;7.054;2023-03-26T11:15:16;3.95;;;1.23;;
72924;SDS011;61070;50.794;7.054;2023-03-26T11:20:40;4.80;;;1.20;;
72924;SDS011;61070;50.794;7.054;2023-03-26T11:28:32;5.20;;;1.20;;
72924;SDS011;61070;50.794;7.054;2023-03-26T11:31:07;4.95;;;1.48;;
72924;SDS011;61070;50.794;7.054;2023-03-26T11:34:00;6.13;;;1.85;;
72924;SDS011;61070;50.794;7.054;2023-03-26T11:36:30;7.50;;;1.80;;
72924;SDS011;61070;50.794;7.054;2023-03-26T11:39:00;3.67;;;1.60;;
72924;SDS011;61070;50.794;7.054;2023-03-26T11:41:30;3.50;;;1.42;;
72924;SDS011;61070;50.794;7.054;2023-03-26T11:44:00;4.60;;;1.17;;
72924;SDS011;61070;50.794;7.054;2023-03-26T11:46:31;3.35;;;1.65;;
72924;SDS011;61070;50.794;7.054;2023-03-26T11:49:00;1.42;;;0.80;;
72924;SDS011;61070;50.794;7.054;2023-03-26T11:51:34;1.55;;;0.93;;
72924;SDS011;61070;50.794;7.054;2023-03-26T11:54:02;1.45;;;1.13;;
72924;SDS011;61070;50.794;7.054;2023-03-26T11:56:47;4.05;;;1.15;;
72924;SDS011;61070;50.794;7.054;2023-03-26T12:04:35;2.00;;;0.60;;
72924;SDS011;61070;50.794;7.054;2023-03-26T12:09:48;0.55;;;0.50;;
72924;SDS011;61070;50.794;7.054;2023-03-26T12:12:20;1.92;;;0.22;;
72924;SDS011;61070;50.794;7.054;2023-03-26T12:14:49;4.35;;;2.17;;
72924;SDS011;61070;50.794;7.054;2023-03-26T12:17:32;2.17;;;0.98;;
72924;SDS011;61070;50.794;7.054;2023-03-26T12:19:59;2.40;;;1.65;;
72924;SDS011;61070;50.794;7.054;2023-03-26T12:30:22;1.85;;;0.95;;
72924;SDS011;61070;50.794;7.054;2023-03-26T12:32:50;2.60;;;1.20;;
72924;SDS011;61070;50.794;7.054;2023-03-26T12:37:53;1.55;;;0.40;;
72924;SDS011;61070;50.794;7.054;2023-03-26T12:40:33;2.58;;;0.52;;
72924;SDS011;61070;50.794;7.054;2023-03-26T12:43:05;0.45;;;0.20;;
72924;SDS011;61070;50.794;7.054;2023-03-26T12:45:52;0.20;;;0.20;;
72924;SDS011;61070;50.794;7.054;2023-03-26T12:48:19;0.28;;;0.20;;
72924;SDS011;61070;50.794;7.054;2023-03-26T12:50:57;0.32;;;0.20;;
72924;SDS011;61070;50.794;7.054;2023-03-26T12:53:51;0.15;;;0.15;;
72924;SDS011;61070;50.794;7.054;2023-03-26T12:59:42;0.40;;;0.35;;
72924;SDS011;61070;50.794;7.054;2023-03-26T13:08:05;0.10;;;0.10;;
72924;SDS011;61070;50.794;7.054;2023-03-26T13:16:25;1.92;;;0.30;;
72924;SDS011;61070;50.794;7.054;2023-03-26T13:19:14;0.40;;;0.40;;
72924;SDS011;61070;50.794;7.054;2023-03-26T13:22:16;0.50;;;0.40;;
72924;SDS011;61070;50.794;7.054;2023-03-26T13:46:38;8.30;;;5.88;;
72924;SDS011;61070;50.794;7.054;2023-03-26T13:51:37;2.20;;;1.80;;
72924;SDS011;61070;50.794;7.054;2023-03-26T13:56:58;1.67;;;1.25;;
72924;SDS011;61070;50.794;7.054;2023-03-26T13:59:44;3.30;;;1.63;;
72924;SDS011;61070;50.794;7.054;2023-03-26T14:02:17;1.65;;;1.48;;
72924;SDS011;61070;50.794;7.054;2023-03-26T14:04:55;2.85;;;1.38;;
72924;SDS011;61070;50.794;7.054;2023-03-26T14:07:42;1.40;;;1.30;;
72924;SDS011;61070;50.794;7.054;2023-03-26T14:10:25;1.50;;;1.40;;
72924;SDS011;61070;50.794;7.054;2023-03-26T14:13:06;1.77;;;1.63;;
72924;SDS011;61070;50.794;7.054;2023-03-26T14:26:56;1.38;;;1.17;;
72924;SDS011;61070;50.794;7.054;2023-03-26T14:42:51;4.85;;;3.38;;
72924;SDS011;61070;50.794;7.054;2023-03-26T14:53:41;7.95;;;3.22;;
72924;SDS011;61070;50.794;7.054;2023-03-26T14:56:14;6.68;;;2.42;;
72924;SDS011;61070;50.794;7.054;2023-03-26T15:01:46;4.18;;;1.98;;
72924;SDS011;61070;50.794;7.054;2023-03-26T15:07:35;6.72;;;2.65;;
72924;SDS011;61070;50.794;7.054;2023-03-26T15:18:41;10.32;;;4.20;;
72924;SDS011;61070;50.794;7.054;2023-03-26T15:27:05;4.88;;;3.45;;
72924;SDS011;61070;50.794;7.054;2023-03-26T15:33:23;4.90;;;2.40;;
72924;SDS011;61070;50.794;7.054;2023-03-26T15:36:29;5.50;;;2.58;;
72924;SDS011;61070;50.794;7.054;2023-03-26T15:39:26;5.15;;;2.65;;
72924;SDS011;61070;50.794;7.054;2023-03-26T15:41:54;8.13;;;3.13;;
72924;SDS011;61070;50.794;7.054;2023-03-26T15:44:33;6.20;;;2.08;;
72924;SDS011;61070;50.794;7.054;2023-03-26T15:49:40;3.75;;;1.83;;
72924;SDS011;61070;50.794;7.054;2023-03-26T16:00:53;6.18;;;2.70;;
72924;SDS011;61070;50.794;7.054;2023-03-26T16:03:29;3.58;;;1.80;;
72924;SDS011;61070;50.794;7.054;2023-03-26T16:08:56;1.35;;;0.90;;
72924;SDS011;61070;50.794;7.054;2023-03-26T16:11:43;2.75;;;1.20;;
72924;SDS011;61070;50.794;7.054;2023-03-26T16:14:09;1.10;;;0.85;;
72924;SDS011;61070;50.794;7.054;2023-03-26T16:21:45;1.38;;;0.73;;
72924;SDS011;61070;50.794;7.054;2023-03-26T16:24:19;1.10;;;0.80;;
72924;SDS011;61070;50.794;7.054;2023-03-26T16:29:31;1.80;;;0.60;;
72924;SDS011;61070;50.794;7.054;2023-03-26T16:34:48;1.45;;;0.70;;
72924;SDS011;61070;50.794;7.054;2023-03-26T16:59:24;2.03;;;0.80;;
72924;SDS011;61070;50.794;7.054;2023-03-26T17:01:58;0.98;;;0.77;;
72924;SDS011;61070;50.794;7.054;2023-03-26T17:04:32;2.53;;;1.08;;
72924;SDS011;61070;50.794;7.054;2023-03-26T17:07:02;4.63;;;2.05;;
72924;SDS011;61070;50.794;7.054;2023-03-26T17:09:50;3.25;;;1.48;;
72924;SDS011;61070;50.794;7.054;2023-03-26T17:12:41;4.10;;;1.50;;
72924;SDS011;61070;50.794;7.054;2023-03-26T17:21:08;2.42;;;0.73;;
72924;SDS011;61070;50.794;7.054;2023-03-26T17:32:16;3.35;;;1.20;;
72924;SDS011;61070;50.794;7.054;2023-03-26T17:35:00;2.25;;;1.33;;
72924;SDS011;61070;50.794;7.054;2023-03-26T17:37:30;3.30;;;1.58;;
72924;SDS011;61070;50.794;7.054;2023-03-26T17:50:31;3.08;;;1.30;;
72924;SDS011;61070;50.794;7.054;2023-03-26T17:55:36;3.80;;;1.77;;
72924;SDS011;61070;50.794;7.054;2023-03-26T17:58:05;4.05;;;1.23;;
72924;SDS011;61070;50.794;7.054;2023-03-26T18:00:43;4.60;;;1.45;;
72924;SDS011;61070;50.794;7.054;2023-03-26T18:05:44;1.92;;;1.30;;
72924;SDS011;61070;50.794;7.054;2023-03-26T18:08:19;1.75;;;1.33;;
72924;SDS011;61070;50.794;7.054;2023-03-26T18:16:14;3.53;;;1.38;;
72924;SDS011;61070;50.794;7.054;2023-03-26T18:18:48;6.45;;;3.90;;
72924;SDS011;61070;50.794;7.054;2023-03-26T18:23:56;6.75;;;2.75;;
72924;SDS011;61070;50.794;7.054;2023-03-26T18:26:23;2.72;;;1.90;;
72924;SDS011;61070;50.794;7.054;2023-03-26T18:29:19;4.13;;;2.20;;
72924;SDS011;61070;50.794;7.054;2023-03-26T18:31:54;4.90;;;2.63;;
72924;SDS011;61070;50.794;7.054;2023-03-26T18:34:28;3.08;;;1.63;;
72924;SDS011;61070;50.794;7.054;2023-03-26T18:39:39;3.00;;;2.25;;
72924;SDS011;61070;50.794;7.054;2023-03-26T18:42:08;7.30;;;3.15;;
72924;SDS011;61070;50.794;7.054;2023-03-26T18:44:43;8.52;;;3.45;;
72924;SDS011;61070;50.794;7.054;2023-03-26T18:47:12;7.20;;;3.60;;
72924;SDS011;61070;50.794;7.054;2023-03-26T18:49:37;8.45;;;4.90;;
72924;SDS011;61070;50.794;7.054;2023-03-26T18:52:02;14.20;;;6.38;;
72924;SDS011;61070;50.794;7.054;2023-03-26T18:54:29;12.45;;;5.35;;
72924;SDS011;61070;50.794;7.054;2023-03-26T18:57:06;9.50;;;5.80;;
72924;SDS011;61070;50.794;7.054;2023-03-26T18:59:34;20.67;;;7.28;;
72924;SDS011;61070;50.794;7.054;2023-03-26T19:02:09;17.75;;;6.55;;
72924;SDS011;61070;50.794;7.054;2023-03-26T19:04:38;25.00;;;7.32;;
72924;SDS011;61070;50.794;7.054;2023-03-26T19:07:07;23.58;;;7.65;;
72924;SDS011;61070;50.794;7.054;2023-03-26T19:09:37;18.70;;;6.70;;
72924;SDS011;61070;50.794;7.054;2023-03-26T19:12:06;18.00;;;6.57;;
72924;SDS011;61070;50.794;7.054;2023-03-26T19:17:31;21.20;;;6.00;;
72924;SDS011;61070;50.794;7.054;2023-03-26T19:20:03;20.88;;;4.82;;
72924;SDS011;61070;50.794;7.054;2023-03-26T19:22:33;21.63;;;6.55;;
72924;SDS011;61070;50.794;7.054;2023-03-26T19:25:00;16.00;;;4.03;;
72924;SDS011;61070;50.794;7.054;2023-03-26T19:27:26;13.98;;;5.03;;
72924;SDS011;61070;50.794;7.054;2023-03-26T19:29:52;14.88;;;5.28;;
72924;SDS011;61070;50.794;7.054;2023-03-26T19:32:18;17.40;;;5.07;;
72924;SDS011;61070;50.794;7.054;2023-03-26T19:34:51;13.65;;;4.57;;
72924;SDS011;61070;50.794;7.054;2023-03-26T19:37:21;20.33;;;4.47;;
72924;SDS011;61070;50.794;7.054;2023-03-26T19:40:10;21.88;;;4.32;;
72924;SDS011;61070;50.794;7.054;2023-03-26T19:42:41;24.73;;;4.47;;
72924;SDS011;61070;50.794;7.054;2023-03-26T19:45:09;24.00;;;5.57;;
72924;SDS011;61070;50.794;7.054;2023-03-26T19:47:40;19.38;;;5.15;;
72924;SDS011;61070;50.794;7.054;2023-03-26T19:50:20;27.05;;;5.25;;
72924;SDS011;61070;50.794;7.054;2023-03-26T19:53:10;27.05;;;4.40;;
72924;SDS011;61070;50.794;7.054;2023-03-26T19:55:37;34.08;;;4.32;;
72924;SDS011;61070;50.794;7.054;2023-03-26T19:58:04;26.05;;;5.78;;
72924;SDS011;61070;50.794;7.054;2023-03-26T20:00:30;20.63;;;5.05;;
72924;SDS011;61070;50.794;7.054;2023-03-26T20:02:56;16.58;;;4.65;;
72924;SDS011;61070;50.794;7.054;2023-03-26T20:07:54;22.48;;;4.32;;
72924;SDS011;61070;50.794;7.054;2023-03-26T20:10:21;22.25;;;3.92;;
72924;SDS011;61070;50.794;7.054;2023-03-26T20:12:47;20.75;;;3.83;;
72924;SDS011;61070;50.794;7.054;2023-03-26T20:17:45;22.42;;;3.40;;
72924;SDS011;61070;50.794;7.054;2023-03-26T20:20:14;10.15;;;3.22;;
72924;SDS011;61070;50.794;7.054;2023-03-26T20:22:39;18.67;;;3.58;;
72924;SDS011;61070;50.794;7.054;2023-03-26T20:25:18;14.52;;;3.03;;
72924;SDS011;61070;50.794;7.054;2023-03-26T20:27:45;17.38;;;4.00;;
72924;SDS011;61070;50.794;7.054;2023-03-26T20:30:12;21.20;;;5.20;;
72924;SDS011;61070;50.794;7.054;2023-03-26T20:32:41;18.15;;;3.67;;
72924;SDS011;61070;50.794;7.054;2023-03-26T20:35:12;21.83;;;3.60;;
72924;SDS011;61070;50.794;7.054;2023-03-26T20:37:40;17.88;;;3.00;;
72924;SDS011;61070;50.794;7.054;2023-03-26T20:40:05;29.83;;;3.83;;
72924;SDS011;61070;50.794;7.054;2023-03-26T20:42:32;14.48;;;3.20;;
72924;SDS011;61070;50.794;7.054;2023-03-26T20:44:59;23.73;;;3.80;;
72924;SDS011;61070;50.794;7.054;2023-03-26T20:47:25;21.35;;;4.55;;
72924;SDS011;61070;50.794;7.054;2023-03-26T20:49:50;13.77;;;3.60;;
72924;SDS011;61070;50.794;7.054;2023-03-26T20:52:16;18.35;;;3.72;;
72924;SDS011;61070;50.794;7.054;2023-03-26T20:54:42;16.95;;;3.42;;
72924;SDS011;61070;50.794;7.054;2023-03-26T20:57:08;21.35;;;3.97;;
72924;SDS011;61070;50.794;7.054;2023-03-26T20:59:37;32.65;;;4.30;;
72924;SDS011;61070;50.794;7.054;2023-03-26T21:02:02;28.92;;;4.07;;